Terminal Aerodrome Forecast
Issued by NWS Tuscon, AZ

Home | Current Version | Previous Version | Text Only | Print | Product List | Glossary On
Versions: 1 2 3 4 5 6 7 8 9 10 11 12 13
210
FTUS45 KTWC 271740
TAFDUG
TAF
KDUG 271740Z 2718/2818 25005KT P6SM BKN070
     FM272000 25008KT P6SM SCT080
     FM280200 36008KT P6SM FEW080
     FM281000 VRB04KT P6SM SKC=

USA.gov is the U.S. government's official web portal to all federal, state and local government web resources and services.